Main page
METAR-TAF:

METAR-TAF

Airports :

Kozani National Airport

Kozani, Greece

latitude: 40-18N, longitude: 021-47E, elevation: 634 m

Current weather observation

The report was made 34 minutes ago, at 02:50 UTC
Wind 5 kt from the North/Northwest, varying between West and North
Temperature 10°C
Humidity 82%
Pressure 1010 hPa

METAR: LGKZ 030250Z AUTO 33005KT 280V010 //// // ////// 10/07 Q1010 RE//

Time: 06:24 (03:24 UTC)


TAF: missing

Weather observations and forecasts of more than 4000 airports (METAR and TAF reports).

The available stations are represented by yellow and red dots on the map.

Hover mouse over dot to see the name of the station.

Then click to see weather observations and forecasts.

To change the map : click on the green buttons with a black cross to zoom in, on the green button with a dash to zoom out, or on the green arrows for adjacent maps.


METAR-TAF: